createdAt,value
2019-04-10T00:01:58.088Z,98663.77
2019-04-10T00:07:10.367Z,98668.86
2019-04-10T00:12:05.311Z,98664.29
2019-04-10T00:17:07.152Z,98661.53
2019-04-10T00:22:09.688Z,98666.36
2019-04-10T00:27:12.459Z,98666.92
2019-04-10T00:32:14.460Z,98664.37
2019-04-10T00:37:23.955Z,98664.59
2019-04-10T00:42:20.967Z,98666.92
2019-04-10T00:47:23.279Z,98663.16
2019-04-10T00:52:25.233Z,98659.45
2019-04-10T00:57:27.524Z,98656.44
2019-04-10T01:02:29.193Z,98651.00
2019-04-10T01:07:36.662Z,98651.97
2019-04-10T01:12:34.318Z,98646.84
2019-04-10T01:17:36.040Z,98649.06
2019-04-10T01:22:37.671Z,98647.01
2019-04-10T01:27:41.000Z,98646.84
2019-04-10T01:32:43.872Z,98640.70
2019-04-10T01:37:51.823Z,98636.53
2019-04-10T01:43:02.394Z,98633.67
2019-04-10T01:47:53.297Z,98626.88
2019-04-10T01:52:55.541Z,98630.60
2019-04-10T01:57:58.858Z,98624.42
2019-04-10T02:03:01.389Z,98634.11
2019-04-10T02:08:09.003Z,98625.30
2019-04-10T02:13:07.396Z,98624.47
2019-04-10T02:18:09.057Z,98624.69
2019-04-10T02:23:10.689Z,98627.18
2019-04-10T02:28:13.076Z,98615.52
2019-04-10T02:33:15.896Z,98621.75
2019-04-10T02:38:35.790Z,98614.43
2019-04-10T02:43:21.282Z,98614.61
2019-04-10T02:48:23.497Z,98616.49
2019-04-10T02:53:25.648Z,98612.72
2019-04-10T02:58:27.590Z,98616.37
2019-04-10T03:03:29.986Z,98613.59
2019-04-10T03:08:44.782Z,98615.36
2019-04-10T03:13:35.886Z,98614.13
2019-04-10T03:18:37.648Z,98616.54
2019-04-10T03:23:40.344Z,98615.18
2019-04-10T03:28:43.004Z,98613.95
2019-04-10T03:33:50.510Z,98615.83
2019-04-10T03:38:58.601Z,98616.36
2019-04-10T03:43:56.441Z,98605.92
2019-04-10T03:48:58.161Z,98608.32
2019-04-10T03:53:59.802Z,98602.89
2019-04-10T03:59:02.240Z,98609.20
2019-04-10T04:04:04.955Z,98619.27
2019-04-10T04:09:10.911Z,98615.95
2019-04-10T04:14:10.353Z,98611.60
2019-04-10T04:19:12.184Z,98610.32
2019-04-10T04:24:13.831Z,98621.03
2019-04-10T04:29:16.426Z,98619.02
2019-04-10T04:34:18.644Z,98615.18
2019-04-10T04:39:26.412Z,98623.09
2019-04-10T04:44:24.200Z,98624.41
2019-04-10T04:49:26.409Z,98629.41
2019-04-10T04:54:28.888Z,98640.38
2019-04-10T04:59:30.725Z,98648.58
2019-04-10T05:04:33.666Z,98649.55
2019-04-10T05:09:38.763Z,98653.67
2019-04-10T05:14:39.907Z,98653.52
2019-04-10T05:19:42.906Z,98654.84
2019-04-10T05:24:44.694Z,98663.72
2019-04-10T05:29:47.141Z,98666.48
2019-04-10T05:34:48.842Z,98665.08
2019-04-10T05:39:52.181Z,98663.92
2019-04-10T05:44:54.448Z,98668.61
2019-04-10T05:49:56.158Z,98667.44
2019-04-10T05:54:57.862Z,98676.00
2019-04-10T06:00:00.495Z,98673.01
2019-04-10T06:05:04.244Z,98676.83
2019-04-10T06:10:09.027Z,98675.09
2019-04-10T06:15:10.737Z,98674.12
2019-04-10T06:20:14.156Z,98676.44
2019-04-10T06:25:18.832Z,98669.16
2019-04-10T06:30:20.601Z,98674.81
2019-04-10T06:35:22.217Z,98667.08
2019-04-10T06:40:25.824Z,98672.06
2019-04-10T06:45:28.003Z,98665.47
2019-04-10T06:50:30.486Z,98674.71
2019-04-10T06:55:33.255Z,98674.95
2019-04-10T07:00:35.220Z,98676.25
2019-04-10T07:05:46.899Z,98683.34
2019-04-10T07:10:49.905Z,98688.20
2019-04-10T07:15:46.609Z,98687.72
2019-04-10T07:20:48.980Z,98695.66
2019-04-10T07:25:51.979Z,98688.59
2019-04-10T07:30:56.834Z,98693.16
2019-04-10T07:35:57.868Z,98693.20
2019-04-10T07:40:59.531Z,98694.56
2019-04-10T07:46:01.207Z,98697.07
2019-04-10T07:51:02.947Z,98695.86
2019-04-10T07:56:09.127Z,98706.77
2019-04-10T08:01:08.572Z,98704.48
2019-04-10T08:06:11.083Z,98713.59
2019-04-10T08:11:13.967Z,98702.58
2019-04-10T08:16:16.961Z,98716.28
2019-04-10T08:21:19.782Z,98715.72
2019-04-10T08:26:22.714Z,98717.73
2019-04-10T08:31:25.318Z,98709.42
2019-04-10T08:36:28.164Z,98713.33
2019-04-10T08:41:30.035Z,98716.41
2019-04-10T08:46:31.602Z,98719.34
2019-04-10T08:51:33.236Z,98726.11
2019-04-10T08:56:35.047Z,98717.42
2019-04-10T09:01:37.643Z,98720.78
2019-04-10T09:06:39.844Z,98723.20
2019-04-10T09:11:43.045Z,98732.55
2019-04-10T09:16:44.879Z,98723.95
2019-04-10T09:21:46.520Z,98730.86
2019-04-10T09:26:48.684Z,98729.41
2019-04-10T09:31:50.530Z,98726.42
2019-04-10T09:36:52.090Z,98717.48
2019-04-10T09:41:54.344Z,98723.34
2019-04-10T09:46:56.158Z,98707.89
2019-04-10T09:51:58.623Z,98719.49
2019-04-10T09:57:01.258Z,98708.48
2019-04-10T10:02:03.210Z,98705.89
2019-04-10T10:07:05.601Z,98711.81
2019-04-10T10:12:07.445Z,98704.05
2019-04-10T10:17:09.109Z,98712.91
2019-04-10T10:22:10.825Z,98703.85
2019-04-10T10:27:13.550Z,98703.09
2019-04-10T10:32:15.292Z,98701.31
2019-04-10T10:37:16.871Z,98703.03
2019-04-10T10:42:19.321Z,98701.67
2019-04-10T10:47:22.231Z,98700.14
2019-04-10T10:52:24.065Z,98699.78
2019-04-10T10:57:26.896Z,98701.27
2019-04-10T11:02:29.659Z,98699.72
2019-04-10T11:07:31.496Z,98699.73
2019-04-10T11:12:34.166Z,98701.02
2019-04-10T11:17:36.288Z,98700.79
2019-04-10T11:22:39.730Z,98699.38
2019-04-10T11:27:42.569Z,98692.92
2019-04-10T11:32:44.553Z,98695.39
2019-04-10T11:37:49.648Z,98695.05
2019-04-10T11:42:51.524Z,98693.81
2019-04-10T11:47:53.459Z,98696.66
2019-04-10T11:52:56.746Z,98694.82
2019-04-10T11:57:59.964Z,98694.88
2019-04-10T12:03:01.726Z,98697.84
2019-04-10T12:13:08.175Z,98705.41
2019-04-10T12:18:10.681Z,98694.12
2019-04-10T12:23:12.680Z,98709.00
2019-04-10T12:28:14.395Z,98717.83
2019-04-10T12:33:17.111Z,98713.83
2019-04-10T12:38:19.332Z,98710.45
2019-04-10T12:43:21.041Z,98710.75
2019-04-10T12:48:23.059Z,98715.77
2019-04-10T12:53:24.915Z,98729.23
2019-04-10T12:58:26.691Z,98713.82
2019-04-10T13:03:29.429Z,98718.28
2019-04-10T13:08:51.524Z,98711.53
2019-04-10T13:13:35.830Z,98710.12
2019-04-10T13:18:38.592Z,98715.87
2019-04-10T13:23:41.217Z,98720.19
2019-04-10T13:28:43.980Z,98713.55
2019-04-10T13:33:45.597Z,98715.58
2019-04-10T13:38:48.857Z,98724.62
2019-04-10T13:43:52.532Z,98709.74
2019-04-10T13:48:55.580Z,98706.19
2019-04-10T13:53:58.455Z,98722.61
2019-04-10T13:59:00.594Z,98709.56
2019-04-10T14:04:02.961Z,98712.29
2019-04-10T14:09:26.355Z,98716.42
2019-04-10T14:14:16.221Z,98719.09
2019-04-10T14:19:17.964Z,98720.37
2019-04-10T14:24:20.078Z,98721.28
2019-04-10T14:29:24.693Z,98729.23
2019-04-10T14:34:28.406Z,98725.04
2019-04-10T14:39:31.329Z,98721.06
2019-04-10T14:44:33.348Z,98729.27
2019-04-10T14:49:35.472Z,98728.71
2019-04-10T14:54:37.596Z,98732.86
2019-04-10T14:59:40.002Z,98727.47
2019-04-10T15:04:41.812Z,98731.89
2019-04-10T15:09:45.239Z,98726.45
2019-04-10T15:14:47.831Z,98725.23
2019-04-10T15:19:51.892Z,98737.08
2019-04-10T15:25:06.867Z,98739.53
2019-04-10T15:30:08.672Z,98750.63
2019-04-10T15:35:10.511Z,98749.77
2019-04-10T15:40:19.916Z,98747.72
2019-04-10T15:45:16.451Z,98751.91
2019-04-10T15:50:18.143Z,98750.56
2019-04-10T15:55:20.102Z,98754.54
2019-04-10T16:00:23.193Z,98750.63
2019-04-10T16:05:25.801Z,98761.33
2019-04-10T16:10:30.943Z,98757.25
2019-04-10T16:15:34.658Z,98752.07
2019-04-10T16:20:36.930Z,98766.45
2019-04-10T16:25:40.581Z,98765.66
2019-04-10T16:30:43.224Z,98772.14
2019-04-10T16:35:46.286Z,98767.07
2019-04-10T16:40:48.140Z,98768.59
2019-04-10T16:45:50.980Z,98769.73
2019-04-10T16:50:53.889Z,98779.30
2019-04-10T16:55:56.920Z,98783.52
2019-04-10T17:00:58.964Z,98784.05
2019-04-10T17:06:01.899Z,98783.64
2019-04-10T17:11:05.324Z,98796.30
2019-04-10T17:16:07.349Z,98790.96
2019-04-10T17:21:09.110Z,98798.28
2019-04-10T17:26:12.829Z,98801.13
2019-04-10T17:31:16.235Z,98809.52
2019-04-10T17:36:18.915Z,98807.03
2019-04-10T17:41:21.860Z,98812.04
2019-04-10T17:46:24.888Z,98827.45
2019-04-10T17:51:28.299Z,98836.95
2019-04-10T17:56:30.525Z,98840.26
2019-04-10T18:01:33.100Z,98845.71
2019-04-10T18:06:35.302Z,98846.10
2019-04-10T18:11:37.447Z,98862.48
2019-04-10T18:16:40.134Z,98864.90
2019-04-10T18:21:44.171Z,98876.53
2019-04-10T18:26:45.716Z,98885.48
2019-04-10T18:31:47.424Z,98895.63
2019-04-10T18:36:50.741Z,98904.22
2019-04-10T18:41:52.665Z,98906.87
2019-04-10T18:46:54.396Z,98911.67
2019-04-10T18:51:56.337Z,98928.72
2019-04-10T18:56:58.136Z,98933.70
2019-04-10T19:02:18.703Z,98933.84
2019-04-10T19:07:21.241Z,98935.78
2019-04-10T19:12:23.014Z,98943.61
2019-04-10T19:17:24.659Z,98957.17
2019-04-10T19:22:26.458Z,98964.93
2019-04-10T19:27:29.232Z,98971.61
2019-04-10T19:32:33.307Z,98979.86
2019-04-10T19:37:36.724Z,98986.59
2019-04-10T19:42:39.745Z,98982.91
2019-04-10T19:47:42.248Z,98984.78
2019-04-10T19:52:44.633Z,98979.36
2019-04-10T19:57:47.743Z,98984.58
2019-04-10T20:02:49.649Z,98993.03
2019-04-10T20:07:51.434Z,98993.31
2019-04-10T20:12:53.295Z,99003.13
2019-04-10T20:17:55.077Z,99002.81
2019-04-10T20:22:56.842Z,99009.53
2019-04-10T20:27:58.623Z,99017.67
2019-04-10T20:33:00.734Z,99016.05
2019-04-10T20:38:03.087Z,99022.46
2019-04-10T20:43:04.966Z,99024.53
2019-04-10T20:48:06.642Z,99033.06
2019-04-10T20:53:09.538Z,99043.40
2019-04-10T20:58:11.384Z,99047.19
2019-04-10T21:03:13.519Z,99053.53
2019-04-10T21:08:15.740Z,99059.27
2019-04-10T21:13:17.542Z,99059.35
2019-04-10T21:18:19.491Z,99071.56
2019-04-10T21:23:22.326Z,99066.06
2019-04-10T21:28:23.991Z,99076.60
2019-04-10T21:33:28.513Z,99083.91
2019-04-10T21:38:30.297Z,99082.23
2019-04-10T21:43:31.858Z,99088.19
2019-04-10T21:48:33.648Z,99090.50
2019-04-10T21:53:35.975Z,99088.63
2019-04-10T21:58:38.937Z,99092.70
2019-04-10T22:03:41.475Z,99095.09
2019-04-10T22:08:49.745Z,99099.68
2019-04-10T22:13:52.680Z,99098.33
2019-04-10T22:18:54.625Z,99100.23
2019-04-10T22:23:56.687Z,99099.68
2019-04-10T22:28:58.482Z,99101.04
2019-04-10T22:34:00.821Z,99097.81
2019-04-10T22:39:04.659Z,99105.95
2019-04-10T22:44:08.289Z,99106.47
2019-04-10T22:49:10.403Z,99111.09
2019-04-10T22:54:13.417Z,99119.52
2019-04-10T22:59:16.128Z,99117.33
2019-04-10T23:04:17.955Z,99129.53
2019-04-10T23:09:20.208Z,99127.58
2019-04-10T23:14:22.751Z,99125.06
2019-04-10T23:19:25.733Z,99133.20
2019-04-10T23:24:27.751Z,99137.28
2019-04-10T23:29:30.868Z,99132.09
2019-04-10T23:34:32.801Z,99134.48
2019-04-10T23:39:34.497Z,99144.30
2019-04-10T23:44:37.391Z,99148.05
2019-04-10T23:49:39.565Z,99145.86
2019-04-10T23:54:41.621Z,99146.89
2019-04-10T23:59:43.359Z,99146.89
